sensor_id;sensor_type;location;lat;lon;timestamp;pressure;altitude;pressure_sealevel;temperature;humidity
75942;BME280;64622;46.220;19.878;2023-04-06T00:00:11;100641.56;;;-0.09;73.56
75942;BME280;64622;46.220;19.878;2023-04-06T00:02:38;100651.59;;;-0.16;73.87
75942;BME280;64622;46.220;19.878;2023-04-06T00:05:06;100662.31;;;-0.36;74.76
75942;BME280;64622;46.220;19.878;2023-04-06T00:07:33;100642.84;;;-0.49;75.50
75942;BME280;64622;46.220;19.878;2023-04-06T00:10:03;100653.97;;;-0.59;76.22
75942;BME280;64622;46.220;19.878;2023-04-06T00:12:30;100656.12;;;-0.67;76.92
75942;BME280;64622;46.220;19.878;2023-04-06T00:14:57;100649.34;;;-0.88;77.28
75942;BME280;64622;46.220;19.878;2023-04-06T00:17:23;100663.19;;;-1.02;78.52
75942;BME280;64622;46.220;19.878;2023-04-06T00:19:50;100647.28;;;-1.16;79.22
75942;BME280;64622;46.220;19.878;2023-04-06T00:22:17;100654.47;;;-1.19;79.87
75942;BME280;64622;46.220;19.878;2023-04-06T00:24:43;100656.16;;;-1.35;81.49
75942;BME280;64622;46.220;19.878;2023-04-06T00:27:10;100651.03;;;-1.55;81.58
75942;BME280;64622;46.220;19.878;2023-04-06T00:29:37;100657.37;;;-1.42;80.67
75942;BME280;64622;46.220;19.878;2023-04-06T00:32:05;100662.25;;;-1.35;81.55
75942;BME280;64622;46.220;19.878;2023-04-06T00:34:31;100653.28;;;-1.48;81.25
75942;BME280;64622;46.220;19.878;2023-04-06T00:36:58;100660.78;;;-1.40;81.04
75942;BME280;64622;46.220;19.878;2023-04-06T00:39:25;100646.50;;;-1.52;80.82
75942;BME280;64622;46.220;19.878;2023-04-06T00:41:52;100653.81;;;-1.41;81.28
75942;BME280;64622;46.220;19.878;2023-04-06T00:44:19;100642.25;;;-1.54;80.66
75942;BME280;64622;46.220;19.878;2023-04-06T00:46:47;100649.19;;;-1.53;80.25
75942;BME280;64622;46.220;19.878;2023-04-06T00:49:13;100647.31;;;-1.51;81.03
75942;BME280;64622;46.220;19.878;2023-04-06T00:51:40;100659.25;;;-1.44;80.87
75942;BME280;64622;46.220;19.878;2023-04-06T00:54:07;100636.13;;;-1.55;80.97
75942;BME280;64622;46.220;19.878;2023-04-06T00:56:34;100648.31;;;-1.54;82.53
75942;BME280;64622;46.220;19.878;2023-04-06T00:59:01;100635.81;;;-1.66;82.78
75942;BME280;64622;46.220;19.878;2023-04-06T01:01:28;100644.91;;;-1.73;83.92
75942;BME280;64622;46.220;19.878;2023-04-06T01:03:55;100635.78;;;-1.83;83.68
75942;BME280;64622;46.220;19.878;2023-04-06T01:06:23;100644.47;;;-1.82;83.70
75942;BME280;64622;46.220;19.878;2023-04-06T01:08:52;100651.34;;;-1.80;84.14
75942;BME280;64622;46.220;19.878;2023-04-06T01:11:19;100645.47;;;-1.85;84.77
75942;BME280;64622;46.220;19.878;2023-04-06T01:13:47;100633.72;;;-1.95;84.56
75942;BME280;64622;46.220;19.878;2023-04-06T01:16:14;100633.31;;;-2.04;84.45
75942;BME280;64622;46.220;19.878;2023-04-06T01:18:41;100637.00;;;-2.08;84.79
75942;BME280;64622;46.220;19.878;2023-04-06T01:21:09;100628.34;;;-2.29;85.52
75942;BME280;64622;46.220;19.878;2023-04-06T01:23:46;100629.16;;;-2.45;86.30
75942;BME280;64622;46.220;19.878;2023-04-06T01:26:14;100632.81;;;-2.49;87.01
75942;BME280;64622;46.220;19.878;2023-04-06T01:28:41;100625.09;;;-2.52;86.52
75942;BME280;64622;46.220;19.878;2023-04-06T01:31:11;100619.53;;;-2.65;87.73
75942;BME280;64622;46.220;19.878;2023-04-06T01:33:38;100612.19;;;-2.75;88.83
75942;BME280;64622;46.220;19.878;2023-04-06T01:36:06;100622.75;;;-2.58;88.09
75942;BME280;64622;46.220;19.878;2023-04-06T01:38:33;100618.91;;;-2.51;88.05
75942;BME280;64622;46.220;19.878;2023-04-06T01:40:59;100602.28;;;-2.68;88.55
75942;BME280;64622;46.220;19.878;2023-04-06T01:43:27;100607.94;;;-2.78;88.59
75942;BME280;64622;46.220;19.878;2023-04-06T01:45:55;100606.47;;;-2.85;89.29
75942;BME280;64622;46.220;19.878;2023-04-06T01:48:23;100603.22;;;-2.90;89.64
75942;BME280;64622;46.220;19.878;2023-04-06T01:50:50;100617.94;;;-2.87;90.58
75942;BME280;64622;46.220;19.878;2023-04-06T01:53:17;100611.25;;;-2.74;90.15
75942;BME280;64622;46.220;19.878;2023-04-06T01:55:45;100602.06;;;-2.83;89.27
75942;BME280;64622;46.220;19.878;2023-04-06T01:58:13;100608.19;;;-2.63;88.97
75942;BME280;64622;46.220;19.878;2023-04-06T02:00:40;100606.09;;;-2.57;88.59
75942;BME280;64622;46.220;19.878;2023-04-06T02:03:08;100591.59;;;-2.64;87.46
75942;BME280;64622;46.220;19.878;2023-04-06T02:05:35;100607.53;;;-2.50;86.42
75942;BME280;64622;46.220;19.878;2023-04-06T02:08:07;100598.25;;;-2.39;86.42
75942;BME280;64622;46.220;19.878;2023-04-06T02:10:35;100589.03;;;-2.47;86.18
75942;BME280;64622;46.220;19.878;2023-04-06T02:13:02;100591.53;;;-2.44;86.71
75942;BME280;64622;46.220;19.878;2023-04-06T02:15:32;100582.97;;;-2.47;86.02
75942;BME280;64622;46.220;19.878;2023-04-06T02:17:59;100579.56;;;-2.50;86.36
75942;BME280;64622;46.220;19.878;2023-04-06T02:20:26;100576.44;;;-2.58;86.89
75942;BME280;64622;46.220;19.878;2023-04-06T02:22:53;100593.34;;;-2.46;86.23
75942;BME280;64622;46.220;19.878;2023-04-06T02:25:20;100597.41;;;-2.39;85.46
75942;BME280;64622;46.220;19.878;2023-04-06T02:27:47;100589.47;;;-2.37;85.03
75942;BME280;64622;46.220;19.878;2023-04-06T02:30:14;100592.38;;;-2.44;84.92
75942;BME280;64622;46.220;19.878;2023-04-06T02:32:43;100591.72;;;-2.49;85.70
75942;BME280;64622;46.220;19.878;2023-04-06T02:35:09;100587.28;;;-2.47;85.10
75942;BME280;64622;46.220;19.878;2023-04-06T02:37:37;100586.47;;;-2.49;85.15
75942;BME280;64622;46.220;19.878;2023-04-06T02:40:04;100589.37;;;-2.55;85.37
75942;BME280;64622;46.220;19.878;2023-04-06T02:42:34;100592.28;;;-2.61;85.59
75942;BME280;64622;46.220;19.878;2023-04-06T02:45:02;100566.03;;;-2.59;84.84
75942;BME280;64622;46.220;19.878;2023-04-06T02:47:30;100582.34;;;-2.53;85.62
75942;BME280;64622;46.220;19.878;2023-04-06T02:49:56;100572.50;;;-2.66;86.31
75942;BME280;64622;46.220;19.878;2023-04-06T02:52:23;100583.84;;;-2.67;86.07
75942;BME280;64622;46.220;19.878;2023-04-06T02:54:50;100570.91;;;-2.70;85.83
75942;BME280;64622;46.220;19.878;2023-04-06T02:57:19;100579.41;;;-2.65;85.75
75942;BME280;64622;46.220;19.878;2023-04-06T02:59:46;100577.62;;;-2.65;86.23
75942;BME280;64622;46.220;19.878;2023-04-06T03:02:13;100586.63;;;-2.70;86.05
75942;BME280;64622;46.220;19.878;2023-04-06T03:04:40;100580.69;;;-2.73;85.56
75942;BME280;64622;46.220;19.878;2023-04-06T03:07:08;100567.31;;;-2.67;85.39
75942;BME280;64622;46.220;19.878;2023-04-06T03:09:37;100575.75;;;-2.61;85.10
75942;BME280;64622;46.220;19.878;2023-04-06T03:12:04;100573.84;;;-2.58;85.02
75942;BME280;64622;46.220;19.878;2023-04-06T03:14:31;100582.50;;;-2.39;83.60
75942;BME280;64622;46.220;19.878;2023-04-06T03:16:58;100568.72;;;-2.42;83.24
75942;BME280;64622;46.220;19.878;2023-04-06T03:19:25;100585.87;;;-2.35;82.70
75942;BME280;64622;46.220;19.878;2023-04-06T03:21:53;100574.03;;;-2.44;82.28
75942;BME280;64622;46.220;19.878;2023-04-06T03:24:20;100581.12;;;-2.46;83.10
75942;BME280;64622;46.220;19.878;2023-04-06T03:26:47;100585.13;;;-2.57;83.58
75942;BME280;64622;46.220;19.878;2023-04-06T03:29:14;100587.22;;;-2.63;84.32
75942;BME280;64622;46.220;19.878;2023-04-06T03:31:41;100596.47;;;-2.75;84.73
75942;BME280;64622;46.220;19.878;2023-04-06T03:34:07;100585.41;;;-2.82;84.90
75942;BME280;64622;46.220;19.878;2023-04-06T03:36:35;100578.22;;;-2.97;84.98
75942;BME280;64622;46.220;19.878;2023-04-06T03:39:03;100591.12;;;-2.92;84.88
75942;BME280;64622;46.220;19.878;2023-04-06T03:41:31;100592.91;;;-2.92;85.13
75942;BME280;64622;46.220;19.878;2023-04-06T03:43:58;100583.59;;;-3.00;85.05
75942;BME280;64622;46.220;19.878;2023-04-06T03:46:27;100594.06;;;-3.00;85.02
75942;BME280;64622;46.220;19.878;2023-04-06T03:48:54;100584.91;;;-3.10;85.16
75942;BME280;64622;46.220;19.878;2023-04-06T03:51:22;100581.06;;;-3.01;86.14
75942;BME280;64622;46.220;19.878;2023-04-06T03:53:49;100596.63;;;-2.98;85.92
75942;BME280;64622;46.220;19.878;2023-04-06T03:56:15;100597.03;;;-3.07;85.92
75942;BME280;64622;46.220;19.878;2023-04-06T03:58:42;100584.91;;;-3.10;86.39
75942;BME280;64622;46.220;19.878;2023-04-06T04:01:11;100596.78;;;-3.01;85.91
75942;BME280;64622;46.220;19.878;2023-04-06T04:03:38;100587.34;;;-3.05;85.68
75942;BME280;64622;46.220;19.878;2023-04-06T04:06:05;100584.03;;;-3.08;85.70
75942;BME280;64622;46.220;19.878;2023-04-06T04:08:32;100587.19;;;-3.02;85.55
75942;BME280;64622;46.220;19.878;2023-04-06T04:10:59;100596.84;;;-3.03;85.70
75942;BME280;64622;46.220;19.878;2023-04-06T04:13:26;100587.62;;;-3.11;85.71
75942;BME280;64622;46.220;19.878;2023-04-06T04:15:53;100588.84;;;-3.20;85.46
75942;BME280;64622;46.220;19.878;2023-04-06T04:18:20;100596.25;;;-3.09;85.52
75942;BME280;64622;46.220;19.878;2023-04-06T04:20:46;100593.09;;;-3.17;85.56
75942;BME280;64622;46.220;19.878;2023-04-06T04:23:13;100590.63;;;-3.20;85.66
75942;BME280;64622;46.220;19.878;2023-04-06T04:25:40;100601.94;;;-3.20;85.57
75942;BME280;64622;46.220;19.878;2023-04-06T04:28:07;100589.31;;;-3.30;85.61
75942;BME280;64622;46.220;19.878;2023-04-06T04:30:34;100608.25;;;-3.23;85.73
75942;BME280;64622;46.220;19.878;2023-04-06T04:33:05;100594.62;;;-3.32;85.75
75942;BME280;64622;46.220;19.878;2023-04-06T04:35:32;100597.13;;;-3.28;86.02
75942;BME280;64622;46.220;19.878;2023-04-06T04:37:58;100600.63;;;-3.30;86.09
75942;BME280;64622;46.220;19.878;2023-04-06T04:40:26;100601.38;;;-3.26;86.29
75942;BME280;64622;46.220;19.878;2023-04-06T04:42:52;100601.16;;;-3.22;86.18
75942;BME280;64622;46.220;19.878;2023-04-06T04:45:20;100605.94;;;-3.11;86.06
75942;BME280;64622;46.220;19.878;2023-04-06T04:47:46;100607.44;;;-3.06;85.95
75942;BME280;64622;46.220;19.878;2023-04-06T04:50:14;100624.44;;;-2.96;85.61
75942;BME280;64622;46.220;19.878;2023-04-06T04:52:41;100609.87;;;-3.01;85.23
75942;BME280;64622;46.220;19.878;2023-04-06T04:55:09;100607.81;;;-2.95;85.08
75942;BME280;64622;46.220;19.878;2023-04-06T04:57:36;100617.88;;;-2.86;85.03
75942;BME280;64622;46.220;19.878;2023-04-06T05:00:04;100605.78;;;-2.88;84.86
75942;BME280;64622;46.220;19.878;2023-04-06T05:02:36;100619.25;;;-2.77;84.93
75942;BME280;64622;46.220;19.878;2023-04-06T05:05:04;100622.09;;;-2.63;84.66
75942;BME280;64622;46.220;19.878;2023-04-06T05:07:31;100620.94;;;-2.56;84.32
75942;BME280;64622;46.220;19.878;2023-04-06T05:09:58;100608.44;;;-2.51;84.00
75942;BME280;64622;46.220;19.878;2023-04-06T05:12:26;100608.66;;;-2.37;83.87
75942;BME280;64622;46.220;19.878;2023-04-06T05:14:55;100607.38;;;-2.29;83.73
75942;BME280;64622;46.220;19.878;2023-04-06T05:17:22;100622.03;;;-2.06;83.52
75942;BME280;64622;46.220;19.878;2023-04-06T05:19:49;100612.91;;;-1.98;83.31
75942;BME280;64622;46.220;19.878;2023-04-06T05:22:17;100621.81;;;-1.83;83.26
75942;BME280;64622;46.220;19.878;2023-04-06T05:24:45;100612.50;;;-1.72;82.77
75942;BME280;64622;46.220;19.878;2023-04-06T05:27:12;100609.13;;;-1.57;82.44
75942;BME280;64622;46.220;19.878;2023-04-06T05:29:39;100615.25;;;-1.39;81.75
75942;BME280;64622;46.220;19.878;2023-04-06T05:32:08;100602.31;;;-1.44;81.37
75942;BME280;64622;46.220;19.878;2023-04-06T05:34:35;100608.12;;;-1.20;81.04
75942;BME280;64622;46.220;19.878;2023-04-06T05:37:03;100604.34;;;-1.15;80.91
75942;BME280;64622;46.220;19.878;2023-04-06T05:39:30;100591.88;;;-0.94;80.57
75942;BME280;64622;46.220;19.878;2023-04-06T05:41:56;100604.22;;;-0.79;79.88
75942;BME280;64622;46.220;19.878;2023-04-06T05:44:24;100604.03;;;-0.76;77.77
75942;BME280;64622;46.220;19.878;2023-04-06T05:46:52;100609.38;;;-0.45;78.57
75942;BME280;64622;46.220;19.878;2023-04-06T05:49:19;100613.28;;;-0.21;77.95
75942;BME280;64622;46.220;19.878;2023-04-06T05:51:45;100597.69;;;-0.09;75.77
75942;BME280;64622;46.220;19.878;2023-04-06T05:54:13;100589.63;;;0.10;75.68
75942;BME280;64622;46.220;19.878;2023-04-06T05:56:39;100600.13;;;0.41;75.42
75942;BME280;64622;46.220;19.878;2023-04-06T05:59:08;100586.06;;;0.56;75.18
75942;BME280;64622;46.220;19.878;2023-04-06T06:01:35;100600.09;;;0.86;73.84
75942;BME280;64622;46.220;19.878;2023-04-06T06:04:03;100601.62;;;1.18;73.71
75942;BME280;64622;46.220;19.878;2023-04-06T06:06:30;100606.81;;;1.19;72.24
75942;BME280;64622;46.220;19.878;2023-04-06T06:08:58;100594.41;;;1.49;72.52
75942;BME280;64622;46.220;19.878;2023-04-06T06:11:28;100587.47;;;1.75;72.47
75942;BME280;64622;46.220;19.878;2023-04-06T06:13:56;100595.84;;;1.95;71.91
75942;BME280;64622;46.220;19.878;2023-04-06T06:16:22;100585.16;;;2.11;70.27
75942;BME280;64622;46.220;19.878;2023-04-06T06:18:49;100591.09;;;2.14;69.69
75942;BME280;64622;46.220;19.878;2023-04-06T06:21:16;100586.97;;;2.37;70.70
75942;BME280;64622;46.220;19.878;2023-04-06T06:23:43;100596.31;;;2.67;68.79
75942;BME280;64622;46.220;19.878;2023-04-06T06:26:12;100578.97;;;2.63;69.04
75942;BME280;64622;46.220;19.878;2023-04-06T06:28:38;100585.63;;;3.08;67.67
75942;BME280;64622;46.220;19.878;2023-04-06T06:31:05;100581.69;;;3.26;66.63
75942;BME280;64622;46.220;19.878;2023-04-06T06:33:32;100590.75;;;3.84;62.07
75942;BME280;64622;46.220;19.878;2023-04-06T06:35:59;100591.31;;;4.13;61.58
75942;BME280;64622;46.220;19.878;2023-04-06T06:38:26;100584.59;;;4.20;63.05
75942;BME280;64622;46.220;19.878;2023-04-06T06:40:56;100577.28;;;4.47;61.69
75942;BME280;64622;46.220;19.878;2023-04-06T06:43:23;100587.25;;;4.67;58.94
75942;BME280;64622;46.220;19.878;2023-04-06T06:45:50;100582.56;;;4.70;57.42
75942;BME280;64622;46.220;19.878;2023-04-06T06:48:17;100574.47;;;5.06;58.23
75942;BME280;64622;46.220;19.878;2023-04-06T06:50:43;100572.81;;;5.27;55.43
75942;BME280;64622;46.220;19.878;2023-04-06T06:53:12;100570.66;;;5.43;55.33
75942;BME280;64622;46.220;19.878;2023-04-06T06:55:39;100571.88;;;5.61;55.02
75942;BME280;64622;46.220;19.878;2023-04-06T06:58:05;100572.09;;;5.58;55.65
75942;BME280;64622;46.220;19.878;2023-04-06T07:00:33;100583.25;;;5.86;55.38
75942;BME280;64622;46.220;19.878;2023-04-06T07:02:59;100581.41;;;6.08;54.13
75942;BME280;64622;46.220;19.878;2023-04-06T07:05:26;100587.44;;;5.55;49.52
75942;BME280;64622;46.220;19.878;2023-04-06T07:07:54;100579.25;;;5.91;52.50
75942;BME280;64622;46.220;19.878;2023-04-06T07:10:21;100577.78;;;5.54;50.40
75942;BME280;64622;46.220;19.878;2023-04-06T07:12:48;100587.91;;;5.71;50.35
75942;BME280;64622;46.220;19.878;2023-04-06T07:15:16;100593.84;;;5.97;51.15
75942;BME280;64622;46.220;19.878;2023-04-06T07:17:44;100585.87;;;6.07;50.11
75942;BME280;64622;46.220;19.878;2023-04-06T07:20:14;100585.16;;;5.83;49.93
75942;BME280;64622;46.220;19.878;2023-04-06T07:22:42;100577.41;;;6.03;49.79
75942;BME280;64622;46.220;19.878;2023-04-06T07:25:11;100588.16;;;6.54;49.02
75942;BME280;64622;46.220;19.878;2023-04-06T07:27:37;100578.31;;;6.34;46.12
75942;BME280;64622;46.220;19.878;2023-04-06T07:30:05;100568.59;;;6.44;46.00
75942;BME280;64622;46.220;19.878;2023-04-06T07:32:32;100568.25;;;6.69;45.97
75942;BME280;64622;46.220;19.878;2023-04-06T07:35:01;100571.91;;;7.09;45.18
75942;BME280;64622;46.220;19.878;2023-04-06T07:37:28;100580.09;;;7.18;43.18
75942;BME280;64622;46.220;19.878;2023-04-06T07:39:55;100572.44;;;7.03;43.97
75942;BME280;64622;46.220;19.878;2023-04-06T07:42:21;100573.81;;;6.98;43.19
75942;BME280;64622;46.220;19.878;2023-04-06T07:44:49;100569.72;;;6.94;43.71
75942;BME280;64622;46.220;19.878;2023-04-06T07:47:16;100571.88;;;7.21;43.02
75942;BME280;64622;46.220;19.878;2023-04-06T07:49:43;100563.16;;;7.69;42.39
75942;BME280;64622;46.220;19.878;2023-04-06T07:52:10;100572.13;;;7.38;43.27
75942;BME280;64622;46.220;19.878;2023-04-06T07:54:40;100572.59;;;7.82;41.49
75942;BME280;64622;46.220;19.878;2023-04-06T07:57:07;100574.50;;;8.10;40.57
75942;BME280;64622;46.220;19.878;2023-04-06T07:59:34;100567.59;;;7.98;39.77
75942;BME280;64622;46.220;19.878;2023-04-06T08:02:01;100557.59;;;8.21;39.76
75942;BME280;64622;46.220;19.878;2023-04-06T08:04:28;100557.06;;;8.37;39.64
75942;BME280;64622;46.220;19.878;2023-04-06T08:06:55;100564.75;;;8.30;39.03
75942;BME280;64622;46.220;19.878;2023-04-06T08:09:21;100566.50;;;8.69;38.43
75942;BME280;64622;46.220;19.878;2023-04-06T08:11:48;100559.47;;;8.00;40.56
75942;BME280;64622;46.220;19.878;2023-04-06T08:14:15;100557.62;;;8.69;38.96
75942;BME280;64622;46.220;19.878;2023-04-06T08:16:42;100561.97;;;8.41;39.16
75942;BME280;64622;46.220;19.878;2023-04-06T08:19:09;100559.56;;;8.29;39.44
75942;BME280;64622;46.220;19.878;2023-04-06T08:21:35;100559.03;;;8.92;38.56
75942;BME280;64622;46.220;19.878;2023-04-06T08:24:02;100552.69;;;9.02;38.33
75942;BME280;64622;46.220;19.878;2023-04-06T08:26:29;100548.47;;;8.81;37.84
75942;BME280;64622;46.220;19.878;2023-04-06T08:28:56;100549.59;;;8.97;37.46
75942;BME280;64622;46.220;19.878;2023-04-06T08:31:23;100543.56;;;8.95;38.21
75942;BME280;64622;46.220;19.878;2023-04-06T08:33:50;100539.06;;;8.96;37.62
75942;BME280;64622;46.220;19.878;2023-04-06T08:36:17;100540.22;;;8.74;36.67
75942;BME280;64622;46.220;19.878;2023-04-06T08:38:46;100537.31;;;9.33;36.16
75942;BME280;64622;46.220;19.878;2023-04-06T08:41:13;100535.13;;;9.55;35.82
75942;BME280;64622;46.220;19.878;2023-04-06T08:43:59;100546.81;;;9.81;36.38
75942;BME280;64622;46.220;19.878;2023-04-06T08:46:28;100543.81;;;9.94;35.57
75942;BME280;64622;46.220;19.878;2023-04-06T08:48:57;100545.34;;;9.96;35.40
75942;BME280;64622;46.220;19.878;2023-04-06T08:51:25;100539.25;;;9.77;36.61
75942;BME280;64622;46.220;19.878;2023-04-06T08:53:57;100537.72;;;9.38;36.31
75942;BME280;64622;46.220;19.878;2023-04-06T08:56:25;100547.78;;;7.52;37.35
75942;BME280;64622;46.220;19.878;2023-04-06T08:58:55;100547.31;;;8.17;36.96
75942;BME280;64622;46.220;19.878;2023-04-06T09:01:27;100538.94;;;8.78;36.33
75942;BME280;64622;46.220;19.878;2023-04-06T09:03:57;100528.69;;;8.55;37.05
75942;BME280;64622;46.220;19.878;2023-04-06T09:06:25;100539.47;;;9.93;34.61
75942;BME280;64622;46.220;19.878;2023-04-06T09:08:55;100537.78;;;10.19;34.14
75942;BME280;64622;46.220;19.878;2023-04-06T09:11:21;100528.25;;;9.43;34.69
75942;BME280;64622;46.220;19.878;2023-04-06T09:13:51;100534.53;;;9.61;35.08
75942;BME280;64622;46.220;19.878;2023-04-06T09:16:18;100520.66;;;9.02;36.32
75942;BME280;64622;46.220;19.878;2023-04-06T09:18:45;100520.41;;;9.42;34.24
75942;BME280;64622;46.220;19.878;2023-04-06T09:21:13;100524.25;;;9.93;34.13
75942;BME280;64622;46.220;19.878;2023-04-06T09:23:39;100521.56;;;9.93;34.90
75942;BME280;64622;46.220;19.878;2023-04-06T09:26:14;100507.41;;;9.56;34.96
75942;BME280;64622;46.220;19.878;2023-04-06T09:28:48;100510.72;;;9.95;34.71
75942;BME280;64622;46.220;19.878;2023-04-06T09:31:16;100520.56;;;9.31;36.25
75942;BME280;64622;46.220;19.878;2023-04-06T09:33:45;100513.53;;;8.74;37.92
75942;BME280;64622;46.220;19.878;2023-04-06T09:36:12;100502.28;;;8.71;36.82
75942;BME280;64622;46.220;19.878;2023-04-06T09:38:55;100500.34;;;8.54;37.95
75942;BME280;64622;46.220;19.878;2023-04-06T09:41:33;100499.47;;;8.53;37.54
75942;BME280;64622;46.220;19.878;2023-04-06T09:44:10;100502.84;;;8.84;37.93
75942;BME280;64622;46.220;19.878;2023-04-06T09:46:41;100494.44;;;8.31;37.42
75942;BME280;64622;46.220;19.878;2023-04-06T09:49:09;100507.19;;;8.85;36.87
75942;BME280;64622;46.220;19.878;2023-04-06T09:51:47;100492.47;;;8.62;36.93
75942;BME280;64622;46.220;19.878;2023-04-06T09:54:18;100480.47;;;10.39;35.59
75942;BME280;64622;46.220;19.878;2023-04-06T09:57:07;100494.59;;;11.09;33.41
75942;BME280;64622;46.220;19.878;2023-04-06T10:02:21;100495.56;;;8.67;37.83
75942;BME280;64622;46.220;19.878;2023-04-06T10:05:07;100492.22;;;9.20;37.40
75942;BME280;64622;46.220;19.878;2023-04-06T10:07:36;100476.78;;;9.78;34.16
75942;BME280;64622;46.220;19.878;2023-04-06T10:10:04;100471.81;;;9.29;36.24
75942;BME280;64622;46.220;19.878;2023-04-06T10:12:31;100460.87;;;8.67;36.84
75942;BME280;64622;46.220;19.878;2023-04-06T10:14:58;100472.78;;;8.72;37.42
75942;BME280;64622;46.220;19.878;2023-04-06T10:17:25;100473.69;;;9.46;37.20
75942;BME280;64622;46.220;19.878;2023-04-06T10:20:10;100475.50;;;10.09;35.22
75942;BME280;64622;46.220;19.878;2023-04-06T10:22:53;100482.28;;;9.03;37.86
75942;BME280;64622;46.220;19.878;2023-04-06T10:25:29;100470.13;;;8.53;36.45
75942;BME280;64622;46.220;19.878;2023-04-06T10:28:02;100461.91;;;9.93;36.28
75942;BME280;64622;46.220;19.878;2023-04-06T10:30:33;100450.78;;;9.16;37.33
75942;BME280;64622;46.220;19.878;2023-04-06T10:33:00;100452.41;;;9.81;36.80
75942;BME280;64622;46.220;19.878;2023-04-06T10:35:37;100457.06;;;11.35;33.57
75942;BME280;64622;46.220;19.878;2023-04-06T10:38:07;100438.97;;;11.29;32.77
75942;BME280;64622;46.220;19.878;2023-04-06T10:40:39;100431.31;;;11.75;31.89
75942;BME280;64622;46.220;19.878;2023-04-06T10:43:22;100435.41;;;12.19;31.85
75942;BME280;64622;46.220;19.878;2023-04-06T10:45:57;100432.16;;;11.76;32.61
75942;BME280;64622;46.220;19.878;2023-04-06T10:48:24;100436.28;;;11.03;34.96
75942;BME280;64622;46.220;19.878;2023-04-06T10:50:52;100434.69;;;11.44;33.03
75942;BME280;64622;46.220;19.878;2023-04-06T10:53:22;100414.84;;;11.62;32.38
75942;BME280;64622;46.220;19.878;2023-04-06T10:55:54;100428.88;;;11.23;33.11
75942;BME280;64622;46.220;19.878;2023-04-06T10:58:26;100415.81;;;10.94;31.96
75942;BME280;64622;46.220;19.878;2023-04-06T11:00:54;100422.75;;;10.54;33.05
75942;BME280;64622;46.220;19.878;2023-04-06T11:03:22;100423.66;;;10.88;33.02
75942;BME280;64622;46.220;19.878;2023-04-06T11:05:50;100407.13;;;11.26;32.33
75942;BME280;64622;46.220;19.878;2023-04-06T11:08:27;100416.25;;;10.39;34.11
75942;BME280;64622;46.220;19.878;2023-04-06T11:11:11;100406.22;;;11.43;31.68
75942;BME280;64622;46.220;19.878;2023-04-06T11:13:42;100404.50;;;9.52;36.02
75942;BME280;64622;46.220;19.878;2023-04-06T11:16:20;100409.78;;;10.67;33.91
75942;BME280;64622;46.220;19.878;2023-04-06T11:19:00;100389.13;;;9.81;33.90
75942;BME280;64622;46.220;19.878;2023-04-06T11:21:47;100395.78;;;9.23;35.71
75942;BME280;64622;46.220;19.878;2023-04-06T11:24:18;100390.09;;;11.35;33.91
75942;BME280;64622;46.220;19.878;2023-04-06T11:26:50;100382.59;;;10.79;33.07
75942;BME280;64622;46.220;19.878;2023-04-06T11:29:19;100399.50;;;11.05;32.84
75942;BME280;64622;46.220;19.878;2023-04-06T11:34:21;100381.94;;;12.34;30.70
75942;BME280;64622;46.220;19.878;2023-04-06T11:36:54;100379.03;;;10.96;33.19
75942;BME280;64622;46.220;19.878;2023-04-06T11:39:23;100373.13;;;11.60;30.72
75942;BME280;64622;46.220;19.878;2023-04-06T11:41:54;100381.47;;;11.15;31.54
75942;BME280;64622;46.220;19.878;2023-04-06T11:44:38;100378.91;;;11.47;30.72
75942;BME280;64622;46.220;19.878;2023-04-06T11:47:10;100382.69;;;11.62;30.09
75942;BME280;64622;46.220;19.878;2023-04-06T11:49:39;100371.84;;;11.38;28.88
75942;BME280;64622;46.220;19.878;2023-04-06T11:54:47;100372.91;;;12.43;29.55
75942;BME280;64622;46.220;19.878;2023-04-06T11:57:14;100375.50;;;12.83;28.13
75942;BME280;64622;46.220;19.878;2023-04-06T11:59:41;100348.31;;;11.66;28.92
75942;BME280;64622;46.220;19.878;2023-04-06T12:02:08;100373.06;;;12.41;28.26
75942;BME280;64622;46.220;19.878;2023-04-06T12:04:35;100366.97;;;12.63;28.82
75942;BME280;64622;46.220;19.878;2023-04-06T12:07:03;100365.50;;;12.21;27.84
75942;BME280;64622;46.220;19.878;2023-04-06T12:09:30;100357.94;;;12.56;27.65
75942;BME280;64622;46.220;19.878;2023-04-06T12:11:57;100346.63;;;10.82;30.60
75942;BME280;64622;46.220;19.878;2023-04-06T12:14:24;100356.94;;;12.41;28.51
75942;BME280;64622;46.220;19.878;2023-04-06T12:16:51;100345.22;;;12.26;28.24
75942;BME280;64622;46.220;19.878;2023-04-06T12:19:18;100358.75;;;12.65;28.48
75942;BME280;64622;46.220;19.878;2023-04-06T12:21:44;100362.81;;;12.53;29.04
75942;BME280;64622;46.220;19.878;2023-04-06T12:24:11;100343.16;;;11.88;29.13
75942;BME280;64622;46.220;19.878;2023-04-06T12:26:38;100350.47;;;11.13;30.46
75942;BME280;64622;46.220;19.878;2023-04-06T12:29:05;100346.09;;;11.04;30.39
75942;BME280;64622;46.220;19.878;2023-04-06T12:31:35;100355.50;;;11.16;30.27
75942;BME280;64622;46.220;19.878;2023-04-06T12:34:02;100341.69;;;10.95;30.82
75942;BME280;64622;46.220;19.878;2023-04-06T12:36:29;100348.63;;;10.54;31.65
75942;BME280;64622;46.220;19.878;2023-04-06T12:38:57;100332.91;;;10.08;32.34
75942;BME280;64622;46.220;19.878;2023-04-06T12:41:24;100331.31;;;10.41;32.14
75942;BME280;64622;46.220;19.878;2023-04-06T12:43:51;100346.38;;;10.42;32.40
75942;BME280;64622;46.220;19.878;2023-04-06T12:46:17;100329.81;;;10.03;31.92
75942;BME280;64622;46.220;19.878;2023-04-06T12:48:44;100332.53;;;10.46;32.27
75942;BME280;64622;46.220;19.878;2023-04-06T12:51:11;100326.97;;;10.40;32.00
75942;BME280;64622;46.220;19.878;2023-04-06T12:53:37;100330.69;;;11.06;32.33
75942;BME280;64622;46.220;19.878;2023-04-06T12:56:14;100328.09;;;10.88;32.34